createdAt,value
2019-04-21T00:01:01.808Z,570
2019-04-21T00:03:04.018Z,570
2019-04-21T00:05:06.217Z,570
2019-04-21T00:07:08.313Z,570
2019-04-21T00:09:10.400Z,571
2019-04-21T00:13:14.679Z,571
2019-04-21T00:15:16.819Z,571
2019-04-21T00:17:18.960Z,571
2019-04-21T00:19:21.104Z,571
2019-04-21T00:21:23.265Z,571
2019-04-21T00:23:25.382Z,571
2019-04-21T00:25:27.741Z,571
2019-04-21T00:27:29.721Z,571
2019-04-21T00:29:31.996Z,571
2019-04-21T00:31:34.034Z,571
2019-04-21T00:33:36.260Z,571
2019-04-21T00:35:38.298Z,571
2019-04-21T00:37:40.445Z,571
2019-04-21T00:39:42.673Z,571
2019-04-21T00:41:44.847Z,571
2019-04-21T00:43:47.004Z,571
2019-04-21T00:45:49.081Z,571
2019-04-21T00:47:51.217Z,571
2019-04-21T00:49:53.375Z,571
2019-04-21T00:51:55.499Z,571
2019-04-21T00:53:57.655Z,571
2019-04-21T00:58:02.002Z,571
2019-04-21T01:00:04.173Z,571
2019-04-21T01:02:06.306Z,571
2019-04-21T01:04:08.457Z,571
2019-04-21T01:06:10.772Z,571
2019-04-21T01:08:16.603Z,571
2019-04-21T01:10:14.956Z,571
2019-04-21T01:12:17.161Z,571
2019-04-21T01:14:19.284Z,571
2019-04-21T01:16:21.498Z,571
2019-04-21T01:18:23.597Z,571
2019-04-21T01:20:25.724Z,571
2019-04-21T01:22:28.020Z,571
2019-04-21T01:24:30.071Z,571
2019-04-21T01:26:32.220Z,571
2019-04-21T01:30:36.577Z,571
2019-04-21T01:32:38.737Z,571
2019-04-21T01:34:40.945Z,571
2019-04-21T01:36:43.025Z,571
2019-04-21T01:38:45.164Z,571
2019-04-21T01:40:47.325Z,571
2019-04-21T01:42:49.477Z,571
2019-04-21T01:44:51.741Z,571
2019-04-21T01:46:53.833Z,572
2019-04-21T01:48:55.994Z,571
2019-04-21T01:50:58.189Z,571
2019-04-21T01:53:00.263Z,570
2019-04-21T01:55:02.435Z,571
2019-04-21T01:57:04.588Z,573
2019-04-21T01:59:06.920Z,568
2019-04-21T02:01:08.930Z,575
2019-04-21T02:03:11.113Z,571
2019-04-21T02:05:13.267Z,564
2019-04-21T02:07:15.462Z,564
2019-04-21T02:09:17.719Z,569
2019-04-21T02:11:19.860Z,565
2019-04-21T02:13:21.960Z,570
2019-04-21T02:15:24.154Z,570
2019-04-21T02:17:26.402Z,572
2019-04-21T02:19:28.512Z,570
2019-04-21T02:21:30.657Z,570
2019-04-21T02:23:32.848Z,570
2019-04-21T02:25:35.061Z,570
2019-04-21T02:27:37.232Z,572
2019-04-21T02:29:39.360Z,571
2019-04-21T02:31:41.577Z,571
2019-04-21T02:33:43.711Z,570
2019-04-21T02:35:45.918Z,571
2019-04-21T02:37:48.058Z,571
2019-04-21T02:39:50.306Z,571
2019-04-21T02:41:52.406Z,570
2019-04-21T02:43:54.606Z,571
2019-04-21T02:45:56.708Z,570
2019-04-21T02:47:58.890Z,571
2019-04-21T02:50:01.114Z,571
2019-04-21T02:52:03.317Z,571
2019-04-21T02:54:05.425Z,571
2019-04-21T02:56:07.816Z,571
2019-04-21T02:58:09.689Z,571
2019-04-21T03:00:11.871Z,571
2019-04-21T03:04:16.188Z,571
2019-04-21T03:06:18.474Z,571
2019-04-21T03:08:20.555Z,571
2019-04-21T03:10:22.685Z,571
2019-04-21T03:12:24.832Z,571
2019-04-21T03:14:26.997Z,571
2019-04-21T03:16:29.173Z,571
2019-04-21T03:18:31.354Z,571
2019-04-21T03:20:33.536Z,571
2019-04-21T03:22:35.746Z,571
2019-04-21T03:24:37.876Z,571
2019-04-21T03:28:42.307Z,571
2019-04-21T03:30:44.525Z,571
2019-04-21T03:32:50.230Z,571
2019-04-21T03:34:48.785Z,571
2019-04-21T03:36:51.032Z,571
2019-04-21T03:38:53.166Z,571
2019-04-21T03:40:55.347Z,571
2019-04-21T03:42:57.631Z,571
2019-04-21T03:44:59.842Z,571
2019-04-21T03:47:01.918Z,571
2019-04-21T03:49:04.062Z,571
2019-04-21T03:51:06.318Z,571
2019-04-21T03:53:08.471Z,571
2019-04-21T03:55:10.620Z,571
2019-04-21T03:57:12.816Z,571
2019-04-21T03:59:15.009Z,571
2019-04-21T04:01:17.177Z,571
2019-04-21T04:03:19.345Z,571
2019-04-21T04:05:21.566Z,572
2019-04-21T04:07:23.724Z,571
2019-04-21T04:09:26.000Z,572
2019-04-21T04:11:28.076Z,571
2019-04-21T04:13:30.269Z,572
2019-04-21T04:15:32.541Z,571
2019-04-21T04:17:34.758Z,572
2019-04-21T04:19:36.876Z,572
2019-04-21T04:21:39.021Z,572
2019-04-21T04:23:41.209Z,572
2019-04-21T04:25:43.492Z,572
2019-04-21T04:27:45.744Z,572
2019-04-21T04:29:47.794Z,572
2019-04-21T04:31:50.052Z,572
2019-04-21T04:33:52.178Z,572
2019-04-21T04:35:54.365Z,572
2019-04-21T04:37:56.709Z,572
2019-04-21T04:39:58.738Z,572
2019-04-21T04:42:00.915Z,572
2019-04-21T04:44:03.131Z,572
2019-04-21T04:46:05.476Z,572
2019-04-21T04:48:07.560Z,572
2019-04-21T04:50:09.729Z,572
2019-04-21T04:52:11.858Z,572
2019-04-21T04:54:14.175Z,572
2019-04-21T04:56:16.215Z,572
2019-04-21T04:58:18.611Z,572
2019-04-21T05:00:20.565Z,572
2019-04-21T05:02:22.733Z,572
2019-04-21T05:04:24.951Z,572
2019-04-21T05:06:27.108Z,572
2019-04-21T05:08:29.352Z,572
2019-04-21T05:10:31.572Z,572
2019-04-21T05:12:33.668Z,572
2019-04-21T05:14:35.856Z,572
2019-04-21T05:18:40.276Z,572
2019-04-21T05:20:42.401Z,572
2019-04-21T05:22:44.600Z,572
2019-04-21T05:26:48.970Z,572
2019-04-21T05:28:51.121Z,572
2019-04-21T05:30:53.317Z,572
2019-04-21T05:32:55.578Z,572
2019-04-21T05:34:58.141Z,572
2019-04-21T05:36:59.880Z,572
2019-04-21T05:39:02.060Z,572
2019-04-21T05:41:04.272Z,572
2019-04-21T05:43:06.456Z,572
2019-04-21T05:45:08.654Z,572
2019-04-21T05:49:13.048Z,572
2019-04-21T05:51:15.254Z,572
2019-04-21T05:53:17.344Z,572
2019-04-21T05:55:19.602Z,572
2019-04-21T05:57:21.676Z,572
2019-04-21T05:59:23.865Z,572
2019-04-21T06:01:26.038Z,572
2019-04-21T06:03:28.231Z,572
2019-04-21T06:05:30.421Z,572
2019-04-21T06:07:32.648Z,572
2019-04-21T06:09:34.876Z,572
2019-04-21T06:11:36.988Z,573
2019-04-21T06:13:39.140Z,572
2019-04-21T06:15:41.321Z,573
2019-04-21T06:17:43.548Z,573
2019-04-21T06:19:45.607Z,573
2019-04-21T06:21:47.785Z,572
2019-04-21T06:23:49.961Z,573
2019-04-21T06:25:52.254Z,573
2019-04-21T06:27:54.296Z,573
2019-04-21T06:29:56.431Z,573
2019-04-21T06:31:58.598Z,573
2019-04-21T06:34:00.820Z,573
2019-04-21T06:36:02.982Z,573
2019-04-21T06:38:05.074Z,573
2019-04-21T06:40:07.243Z,573
2019-04-21T06:42:09.482Z,573
2019-04-21T06:44:15.757Z,572
2019-04-21T06:46:13.655Z,572
2019-04-21T06:48:15.877Z,573
2019-04-21T06:50:18.093Z,573
2019-04-21T06:52:20.056Z,573
2019-04-21T06:54:22.197Z,573
2019-04-21T06:56:24.419Z,573
2019-04-21T06:58:26.437Z,573
2019-04-21T07:00:28.546Z,573
2019-04-21T07:04:32.811Z,573
2019-04-21T07:06:35.254Z,573
2019-04-21T07:08:37.168Z,573
2019-04-21T07:12:41.414Z,573
2019-04-21T07:14:43.509Z,573
2019-04-21T07:16:45.574Z,573
2019-04-21T07:18:47.748Z,573
2019-04-21T07:20:49.951Z,573
2019-04-21T07:22:51.979Z,573
2019-04-21T07:24:54.396Z,573
2019-04-21T07:26:56.187Z,573
2019-04-21T07:28:58.321Z,573
2019-04-21T07:31:00.431Z,573
2019-04-21T07:33:02.530Z,573
2019-04-21T07:35:04.744Z,573
2019-04-21T07:37:06.735Z,573
2019-04-21T07:39:08.868Z,573
2019-04-21T07:41:13.551Z,573
2019-04-21T07:43:13.262Z,573
2019-04-21T07:45:15.172Z,573
2019-04-21T07:47:17.374Z,573
2019-04-21T07:51:21.764Z,573
2019-04-21T07:53:23.560Z,573
2019-04-21T07:55:25.651Z,573
2019-04-21T07:57:27.782Z,573
2019-04-21T07:59:29.850Z,573
2019-04-21T08:01:31.941Z,573
2019-04-21T08:03:34.043Z,573
2019-04-21T08:05:36.135Z,573
2019-04-21T08:07:39.123Z,573
2019-04-21T08:09:40.414Z,573
2019-04-21T08:11:42.394Z,573
2019-04-21T08:13:44.490Z,573
2019-04-21T08:15:46.634Z,573
2019-04-21T08:17:48.703Z,573
2019-04-21T08:21:52.855Z,573
2019-04-21T08:23:54.984Z,573
2019-04-21T08:25:57.949Z,573
2019-04-21T08:27:59.059Z,574
2019-04-21T08:30:01.105Z,574
2019-04-21T08:32:03.177Z,573
2019-04-21T08:34:05.327Z,574
2019-04-21T08:36:07.322Z,574
2019-04-21T08:38:09.348Z,574
2019-04-21T08:40:11.409Z,574
2019-04-21T08:42:13.474Z,574
2019-04-21T08:44:15.624Z,574
2019-04-21T08:46:21.138Z,574
2019-04-21T08:48:19.678Z,574
2019-04-21T08:50:21.763Z,574
2019-04-21T08:52:23.861Z,574
2019-04-21T08:54:25.902Z,574
2019-04-21T08:56:28.418Z,574
2019-04-21T08:58:30.028Z,574
2019-04-21T09:00:32.149Z,574
2019-04-21T09:02:34.122Z,574
2019-04-21T09:04:36.542Z,574
2019-04-21T09:06:38.279Z,574
2019-04-21T09:08:40.288Z,574
2019-04-21T09:10:42.348Z,574
2019-04-21T09:12:47.660Z,574
2019-04-21T09:14:46.618Z,574
2019-04-21T09:16:48.528Z,574
2019-04-21T09:18:50.580Z,574
2019-04-21T09:20:52.691Z,574
2019-04-21T09:22:54.684Z,574
2019-04-21T09:24:56.732Z,574
2019-04-21T09:26:58.865Z,574
2019-04-21T09:29:00.877Z,574
2019-04-21T09:31:02.880Z,574
2019-04-21T09:33:05.027Z,574
2019-04-21T09:35:07.117Z,574
2019-04-21T09:37:09.068Z,574
2019-04-21T09:39:11.180Z,574
2019-04-21T09:41:13.212Z,574
2019-04-21T09:43:15.264Z,574
2019-04-21T09:45:17.312Z,574
2019-04-21T09:47:19.379Z,574
2019-04-21T09:49:21.570Z,574
2019-04-21T09:51:23.512Z,574
2019-04-21T09:53:25.519Z,574
2019-04-21T09:55:27.799Z,574
2019-04-21T09:57:29.626Z,574
2019-04-21T09:59:31.663Z,574
2019-04-21T10:01:33.828Z,575
2019-04-21T10:03:35.793Z,574
2019-04-21T10:05:37.827Z,574
2019-04-21T10:07:39.987Z,574
2019-04-21T10:09:41.929Z,574
2019-04-21T10:11:43.979Z,574
2019-04-21T10:13:46.080Z,575
2019-04-21T10:15:48.091Z,575
2019-04-21T10:17:50.197Z,575
2019-04-21T10:19:52.323Z,575
2019-04-21T10:21:54.351Z,575
2019-04-21T10:23:56.331Z,575
2019-04-21T10:25:58.411Z,575
2019-04-21T10:28:00.626Z,575
2019-04-21T10:30:02.501Z,575
2019-04-21T10:32:04.569Z,575
2019-04-21T10:34:06.636Z,575
2019-04-21T10:36:08.668Z,575
2019-04-21T10:38:10.705Z,575
2019-04-21T10:40:12.753Z,575
2019-04-21T10:42:14.815Z,575
2019-04-21T10:44:16.845Z,575
2019-04-21T10:46:18.913Z,575
2019-04-21T10:48:24.572Z,575
2019-04-21T10:52:25.089Z,575
2019-04-21T10:54:27.050Z,575
2019-04-21T10:56:29.121Z,575
2019-04-21T10:58:31.143Z,575
2019-04-21T11:00:33.178Z,575
2019-04-21T11:02:35.303Z,575
2019-04-21T11:04:37.329Z,575
2019-04-21T11:06:39.305Z,575
2019-04-21T11:08:41.699Z,575
2019-04-21T11:10:43.372Z,575
2019-04-21T11:12:45.400Z,575
2019-04-21T11:14:47.663Z,575
2019-04-21T11:18:51.671Z,575
2019-04-21T11:20:53.493Z,575
2019-04-21T11:22:55.531Z,575
2019-04-21T11:24:57.665Z,575
2019-04-21T11:26:59.587Z,575
2019-04-21T11:29:01.668Z,575
2019-04-21T11:31:03.634Z,575
2019-04-21T11:33:05.711Z,575
2019-04-21T11:35:07.649Z,575
2019-04-21T11:37:09.703Z,575
2019-04-21T11:39:12.025Z,575
2019-04-21T11:41:13.823Z,575
2019-04-21T11:43:15.822Z,575
2019-04-21T11:45:18.008Z,575
2019-04-21T11:47:19.787Z,575
2019-04-21T11:49:21.794Z,575
2019-04-21T11:51:23.778Z,575
2019-04-21T11:53:25.780Z,575
2019-04-21T11:55:27.999Z,575
2019-04-21T11:57:29.817Z,575
2019-04-21T11:59:32.884Z,575
2019-04-21T12:01:34.137Z,575
2019-04-21T12:03:35.915Z,575
2019-04-21T12:05:37.856Z,575
2019-04-21T12:07:40.400Z,575
2019-04-21T12:09:41.808Z,575
2019-04-21T12:11:43.866Z,575
2019-04-21T12:13:46.051Z,575
2019-04-21T12:19:51.801Z,575
2019-04-21T12:21:53.732Z,575
2019-04-21T12:23:55.741Z,575
2019-04-21T12:25:58.285Z,575
2019-04-21T12:27:59.660Z,575
2019-04-21T12:30:01.632Z,575
2019-04-21T12:32:03.734Z,575
2019-04-21T12:34:05.656Z,575
2019-04-21T12:36:07.573Z,576
2019-04-21T12:38:09.714Z,576
2019-04-21T12:40:11.576Z,576
2019-04-21T12:42:13.550Z,576
2019-04-21T12:44:15.679Z,576
2019-04-21T12:46:17.561Z,576
2019-04-21T12:48:19.536Z,576
2019-04-21T12:50:21.565Z,576
2019-04-21T12:52:23.536Z,576
2019-04-21T12:54:25.636Z,576
2019-04-21T12:56:27.554Z,576
2019-04-21T12:58:29.527Z,576
2019-04-21T13:00:31.678Z,576
2019-04-21T13:02:33.539Z,576
2019-04-21T13:04:35.552Z,576
2019-04-21T13:06:37.588Z,576
2019-04-21T13:08:39.640Z,576
2019-04-21T13:10:41.594Z,576
2019-04-21T13:12:43.680Z,576
2019-04-21T13:14:48.743Z,576
2019-04-21T13:16:47.681Z,576
2019-04-21T13:18:49.810Z,576
2019-04-21T13:20:51.688Z,576
2019-04-21T13:22:53.638Z,576
2019-04-21T13:24:56.395Z,576
2019-04-21T13:26:57.639Z,576
2019-04-21T13:28:59.800Z,576
2019-04-21T13:31:01.636Z,576
2019-04-21T13:33:03.620Z,576
2019-04-21T13:35:05.624Z,576
2019-04-21T13:37:07.644Z,576
2019-04-21T13:39:09.755Z,576
2019-04-21T13:41:11.692Z,576
2019-04-21T13:43:13.608Z,576
2019-04-21T13:45:15.617Z,576
2019-04-21T13:47:17.679Z,576
2019-04-21T13:49:19.661Z,576
2019-04-21T13:51:21.613Z,576
2019-04-21T13:55:25.631Z,576
2019-04-21T13:57:27.595Z,576
2019-04-21T13:59:29.597Z,576
2019-04-21T14:01:31.624Z,576
2019-04-21T14:03:33.589Z,575
2019-04-21T14:05:35.617Z,576
2019-04-21T14:07:37.603Z,573
2019-04-21T14:09:39.921Z,571
2019-04-21T14:11:41.592Z,574
2019-04-21T14:13:43.753Z,574
2019-04-21T14:15:45.604Z,577
2019-04-21T14:17:47.565Z,576
2019-04-21T14:19:49.663Z,576
2019-04-21T14:21:51.634Z,576
2019-04-21T14:23:53.711Z,576
2019-04-21T14:25:55.554Z,576
2019-04-21T14:27:57.569Z,576
2019-04-21T14:29:59.561Z,576
2019-04-21T14:32:01.571Z,576
2019-04-21T14:34:03.558Z,576
2019-04-21T14:38:07.614Z,576
2019-04-21T14:40:12.820Z,576
2019-04-21T14:42:11.569Z,576
2019-04-21T14:44:13.655Z,576
2019-04-21T14:46:15.649Z,576
2019-04-21T14:50:19.526Z,576
2019-04-21T14:52:21.734Z,576
2019-04-21T14:54:23.676Z,576
2019-04-21T14:56:31.777Z,576
2019-04-21T14:58:27.484Z,576
2019-04-21T15:00:29.537Z,576
2019-04-21T15:02:31.445Z,576
2019-04-21T15:04:33.446Z,576
2019-04-21T15:06:35.441Z,576
2019-04-21T15:08:37.417Z,576
2019-04-21T15:10:39.614Z,576
2019-04-21T15:12:41.422Z,576
2019-04-21T15:14:43.349Z,576
2019-04-21T15:16:45.357Z,576
2019-04-21T15:18:47.349Z,576
2019-04-21T15:20:49.289Z,576
2019-04-21T15:22:51.298Z,576
2019-04-21T15:24:53.247Z,576
2019-04-21T15:26:55.217Z,575
2019-04-21T15:28:57.182Z,576
2019-04-21T15:30:59.167Z,575
2019-04-21T15:33:01.128Z,575
2019-04-21T15:35:03.147Z,575
2019-04-21T15:37:05.201Z,576
2019-04-21T15:39:07.100Z,576
2019-04-21T15:41:09.091Z,576
2019-04-21T15:43:11.054Z,575
2019-04-21T15:45:13.046Z,575
2019-04-21T15:47:15.024Z,575
2019-04-21T15:49:17.017Z,575
2019-04-21T15:51:19.114Z,575
2019-04-21T15:53:21.008Z,575
2019-04-21T15:55:22.970Z,575
2019-04-21T15:57:24.946Z,575
2019-04-21T15:59:26.905Z,575
2019-04-21T16:01:28.900Z,575
2019-04-21T16:03:30.952Z,575
2019-04-21T16:05:32.849Z,575
2019-04-21T16:07:34.832Z,575
2019-04-21T16:09:36.794Z,575
2019-04-21T16:11:38.767Z,575
2019-04-21T16:13:40.839Z,575
2019-04-21T16:15:42.724Z,575
2019-04-21T16:17:44.721Z,575
2019-04-21T16:19:46.693Z,575
2019-04-21T16:23:50.675Z,575
2019-04-21T16:25:55.539Z,575
2019-04-21T16:27:54.733Z,575
2019-04-21T16:29:56.638Z,575
2019-04-21T16:31:58.695Z,575
2019-04-21T16:34:03.044Z,575
2019-04-21T16:36:02.736Z,575
2019-04-21T16:38:04.680Z,575
2019-04-21T16:40:06.694Z,575
2019-04-21T16:42:08.678Z,575
2019-04-21T16:44:10.691Z,575
2019-04-21T16:46:12.714Z,575
2019-04-21T16:48:14.694Z,575
2019-04-21T16:50:16.735Z,575
2019-04-21T16:52:18.818Z,575
2019-04-21T16:54:20.902Z,575
2019-04-21T16:56:22.739Z,575
2019-04-21T16:58:24.757Z,575
2019-04-21T17:00:26.931Z,575
2019-04-21T17:02:28.756Z,575
2019-04-21T17:04:30.797Z,575
2019-04-21T17:06:35.209Z,575
2019-04-21T17:08:34.798Z,575
2019-04-21T17:10:36.816Z,575
2019-04-21T17:12:38.825Z,575
2019-04-21T17:14:40.861Z,575
2019-04-21T17:16:44.803Z,575
2019-04-21T17:18:44.871Z,575
2019-04-21T17:20:46.903Z,575
2019-04-21T17:22:48.876Z,575
2019-04-21T17:24:50.942Z,575
2019-04-21T17:26:53.017Z,575
2019-04-21T17:28:54.948Z,575
2019-04-21T17:30:57.112Z,575
2019-04-21T17:32:59.029Z,575
2019-04-21T17:35:01.110Z,575
2019-04-21T17:37:03.047Z,575
2019-04-21T17:39:05.146Z,575
2019-04-21T17:41:07.881Z,575
2019-04-21T17:43:09.261Z,575
2019-04-21T17:45:11.195Z,574
2019-04-21T17:49:15.222Z,574
2019-04-21T17:51:17.268Z,574
2019-04-21T17:53:19.324Z,574
2019-04-21T17:55:21.398Z,574
2019-04-21T17:57:23.446Z,574
2019-04-21T17:59:25.405Z,574
2019-04-21T18:01:27.526Z,574
2019-04-21T18:03:29.602Z,575
2019-04-21T18:05:31.557Z,575
2019-04-21T18:07:33.599Z,574
2019-04-21T18:09:35.642Z,575
2019-04-21T18:11:37.697Z,575
2019-04-21T18:13:39.728Z,574
2019-04-21T18:15:41.885Z,572
2019-04-21T18:17:43.947Z,573
2019-04-21T18:19:45.941Z,574
2019-04-21T18:21:48.066Z,572
2019-04-21T18:23:50.040Z,570
2019-04-21T18:25:53.910Z,569
2019-04-21T18:27:54.169Z,570
2019-04-21T18:29:56.247Z,571
2019-04-21T18:31:58.340Z,570
2019-04-21T18:34:00.412Z,569
2019-04-21T18:36:02.503Z,572
2019-04-21T18:38:04.632Z,574
2019-04-21T18:40:06.849Z,571
2019-04-21T18:42:08.772Z,573
2019-04-21T18:44:10.902Z,574
2019-04-21T18:46:13.256Z,577
2019-04-21T18:48:15.208Z,577
2019-04-21T18:50:17.295Z,574
2019-04-21T18:52:19.268Z,571
2019-04-21T18:54:21.412Z,572
2019-04-21T18:56:23.536Z,573
2019-04-21T18:58:25.617Z,572
2019-04-21T19:00:27.986Z,569
2019-04-21T19:02:29.808Z,573
2019-04-21T19:04:31.921Z,571
2019-04-21T19:06:34.013Z,570
2019-04-21T19:08:36.108Z,568
2019-04-21T19:10:38.219Z,568
2019-04-21T19:12:40.307Z,570
2019-04-21T19:14:42.391Z,569
2019-04-21T19:16:44.653Z,575
2019-04-21T19:18:46.606Z,570
2019-04-21T19:20:48.833Z,572
2019-04-21T19:22:50.775Z,575
2019-04-21T19:24:52.900Z,574
2019-04-21T19:28:57.144Z,574
2019-04-21T19:30:59.195Z,575
2019-04-21T19:33:01.277Z,573
2019-04-21T19:35:03.367Z,574
2019-04-21T19:37:05.542Z,574
2019-04-21T19:39:07.578Z,574
2019-04-21T19:41:09.646Z,574
2019-04-21T19:43:11.745Z,574
2019-04-21T19:45:13.854Z,573
2019-04-21T19:47:15.909Z,574
2019-04-21T19:49:18.038Z,574
2019-04-21T19:51:20.157Z,574
2019-04-21T19:53:22.351Z,574
2019-04-21T19:55:24.354Z,574
2019-04-21T19:57:26.414Z,574
2019-04-21T19:59:28.553Z,574
2019-04-21T20:03:32.737Z,574
2019-04-21T20:05:35.043Z,574
2019-04-21T20:07:37.014Z,574
2019-04-21T20:09:39.072Z,574
2019-04-21T20:11:41.232Z,574
2019-04-21T20:13:43.270Z,574
2019-04-21T20:15:45.367Z,574
2019-04-21T20:17:47.495Z,574
2019-04-21T20:19:49.635Z,574
2019-04-21T20:21:51.718Z,574
2019-04-21T20:23:53.798Z,574
2019-04-21T20:25:55.924Z,574
2019-04-21T20:27:58.006Z,574
2019-04-21T20:30:00.125Z,574
2019-04-21T20:32:02.276Z,574
2019-04-21T20:34:04.293Z,574
2019-04-21T20:36:06.642Z,574
2019-04-21T20:38:08.499Z,574
2019-04-21T20:40:10.651Z,574
2019-04-21T20:42:12.728Z,574
2019-04-21T20:44:14.839Z,574
2019-04-21T20:46:17.007Z,574
2019-04-21T20:48:19.061Z,574
2019-04-21T20:50:21.135Z,574
2019-04-21T20:52:23.224Z,574
2019-04-21T20:54:25.319Z,574
2019-04-21T20:56:27.412Z,574
2019-04-21T20:58:29.513Z,574
2019-04-21T21:00:31.613Z,574
2019-04-21T21:02:33.755Z,574
2019-04-21T21:04:35.921Z,574
2019-04-21T21:06:37.951Z,574
2019-04-21T21:08:40.058Z,574
2019-04-21T21:10:42.152Z,574
2019-04-21T21:12:44.286Z,574
2019-04-21T21:14:46.419Z,574
2019-04-21T21:16:48.462Z,574
2019-04-21T21:18:50.579Z,574
2019-04-21T21:20:52.650Z,574
2019-04-21T21:22:54.738Z,574
2019-04-21T21:24:56.847Z,574
2019-04-21T21:26:59.052Z,574
2019-04-21T21:29:01.060Z,574
2019-04-21T21:31:03.493Z,574
2019-04-21T21:33:05.346Z,574
2019-04-21T21:35:07.494Z,574
2019-04-21T21:37:09.497Z,574
2019-04-21T21:39:11.629Z,574
2019-04-21T21:41:13.768Z,574
2019-04-21T21:43:15.906Z,574
2019-04-21T21:45:17.976Z,574
2019-04-21T21:47:20.000Z,574
2019-04-21T21:49:22.092Z,574
2019-04-21T21:51:24.286Z,574
2019-04-21T21:53:26.313Z,574
2019-04-21T21:55:28.415Z,574
2019-04-21T21:57:30.512Z,574
2019-04-21T21:59:32.634Z,574
2019-04-21T22:01:38.759Z,574
2019-04-21T22:03:36.834Z,574
2019-04-21T22:05:38.941Z,574
2019-04-21T22:07:41.053Z,574
2019-04-21T22:09:43.173Z,574
2019-04-21T22:11:45.277Z,574
2019-04-21T22:13:47.473Z,574
2019-04-21T22:15:49.806Z,574
2019-04-21T22:17:51.664Z,574
2019-04-21T22:19:53.739Z,574
2019-04-21T22:21:55.878Z,574
2019-04-21T22:23:57.984Z,574
2019-04-21T22:26:00.471Z,574
2019-04-21T22:28:02.210Z,574
2019-04-21T22:30:04.315Z,574
2019-04-21T22:32:06.472Z,574
2019-04-21T22:34:08.539Z,574
2019-04-21T22:36:10.663Z,574
2019-04-21T22:38:12.753Z,574
2019-04-21T22:40:14.935Z,574
2019-04-21T22:42:17.088Z,574
2019-04-21T22:44:19.103Z,574
2019-04-21T22:46:21.309Z,574
2019-04-21T22:48:23.378Z,574
2019-04-21T22:50:25.528Z,574
2019-04-21T22:52:27.677Z,574
2019-04-21T22:54:29.762Z,574
2019-04-21T22:56:31.889Z,574
2019-04-21T22:58:34.098Z,574
2019-04-21T23:00:36.164Z,574
2019-04-21T23:02:38.301Z,574
2019-04-21T23:04:40.692Z,574
2019-04-21T23:06:42.578Z,574
2019-04-21T23:08:44.717Z,574
2019-04-21T23:10:46.872Z,574
2019-04-21T23:12:49.010Z,574
2019-04-21T23:14:51.181Z,574
2019-04-21T23:16:53.310Z,574
2019-04-21T23:18:55.435Z,574
2019-04-21T23:20:57.684Z,574
2019-04-21T23:23:02.205Z,574
2019-04-21T23:25:01.860Z,574
2019-04-21T23:27:04.031Z,574
2019-04-21T23:29:06.169Z,574
2019-04-21T23:31:08.324Z,574
2019-04-21T23:33:10.462Z,574
2019-04-21T23:35:12.650Z,574
2019-04-21T23:37:14.758Z,574
2019-04-21T23:39:16.920Z,574
2019-04-21T23:41:19.073Z,574
2019-04-21T23:43:21.331Z,574
2019-04-21T23:45:23.432Z,574
2019-04-21T23:47:25.528Z,574
2019-04-21T23:49:27.768Z,574
2019-04-21T23:51:29.833Z,574
2019-04-21T23:53:32.009Z,574
2019-04-21T23:55:34.175Z,574
2019-04-21T23:57:36.328Z,574
2019-04-21T23:59:38.466Z,575
